createdAt,value
2023-05-21T00:00:43.566Z,16
2023-05-21T00:03:15.007Z,16
2023-05-21T00:05:45.992Z,16
2023-05-21T00:08:16.739Z,16
2023-05-21T00:10:47.263Z,16
2023-05-21T00:13:17.872Z,16
2023-05-21T00:15:48.430Z,16
2023-05-21T00:18:19.101Z,16
2023-05-21T00:20:49.874Z,20
2023-05-21T00:23:20.512Z,17
2023-05-21T00:25:51.323Z,16
2023-05-21T00:28:22.445Z,16
2023-05-21T00:30:54.357Z,16
2023-05-21T00:33:25.957Z,17
2023-05-21T00:35:56.643Z,16
2023-05-21T00:38:28.754Z,17
2023-05-21T00:40:59.340Z,17
2023-05-21T00:43:30.507Z,19
2023-05-21T00:46:01.072Z,16
2023-05-21T00:48:31.688Z,19
2023-05-21T00:51:03.578Z,16
2023-05-21T00:53:34.104Z,16
2023-05-21T00:56:05.896Z,16
2023-05-21T00:58:36.708Z,20
2023-05-21T01:01:07.844Z,17
2023-05-21T01:03:38.864Z,16
2023-05-21T01:06:09.671Z,20
2023-05-21T01:08:40.917Z,20
2023-05-21T01:11:12.338Z,16
2023-05-21T01:13:42.862Z,16
2023-05-21T01:16:13.797Z,19
2023-05-21T01:18:44.461Z,16
2023-05-21T01:21:15.348Z,16
2023-05-21T01:23:45.884Z,16
2023-05-21T01:26:16.729Z,19
2023-05-21T01:28:47.311Z,20
2023-05-21T01:31:18.540Z,20
2023-05-21T01:33:48.996Z,17
2023-05-21T01:36:20.627Z,20
2023-05-21T01:38:57.308Z,20
2023-05-21T01:41:28.390Z,16
2023-05-21T01:44:05.432Z,20
2023-05-21T01:46:36.547Z,20
2023-05-21T01:49:07.464Z,17
2023-05-21T01:51:38.051Z,17
2023-05-21T01:54:08.290Z,20
2023-05-21T01:56:38.847Z,16
2023-05-21T01:59:09.384Z,20
2023-05-21T02:01:39.885Z,17
2023-05-21T02:04:10.750Z,20
2023-05-21T02:06:42.060Z,20
2023-05-21T02:09:12.685Z,20
2023-05-21T02:11:43.364Z,20
2023-05-21T02:14:14.291Z,20
2023-05-21T02:16:43.364Z,16
2023-05-21T02:19:14.220Z,20
2023-05-21T02:21:45.401Z,16
2023-05-21T02:24:16.040Z,20
2023-05-21T02:26:47.080Z,20
2023-05-21T02:29:18.152Z,20
2023-05-21T02:31:49.429Z,17
2023-05-21T02:34:20.365Z,20
2023-05-21T02:36:51.780Z,20
2023-05-21T02:39:23.482Z,16
2023-05-21T02:41:55.782Z,20
2023-05-21T02:44:26.518Z,19
2023-05-21T02:46:57.451Z,20
2023-05-21T02:49:29.595Z,20
2023-05-21T02:52:00.504Z,16
2023-05-21T02:54:31.521Z,20
2023-05-21T02:57:02.768Z,19
2023-05-21T02:59:33.768Z,20
2023-05-21T03:02:04.885Z,20
2023-05-21T03:04:36.024Z,20
2023-05-21T03:07:06.712Z,18
2023-05-21T03:09:37.418Z,20
2023-05-21T03:12:08.464Z,20
2023-05-21T03:14:39.518Z,16
2023-05-21T03:17:11.934Z,16
2023-05-21T03:19:42.875Z,20
2023-05-21T03:22:13.782Z,20
2023-05-21T03:24:44.610Z,20
2023-05-21T03:27:15.388Z,20
2023-05-21T03:29:46.204Z,20
2023-05-21T03:32:17.064Z,18
2023-05-21T03:34:48.038Z,20
2023-05-21T03:37:18.594Z,20
2023-05-21T03:39:49.080Z,20
2023-05-21T03:42:19.444Z,20
2023-05-21T03:44:50.493Z,17
2023-05-21T03:47:21.352Z,20
2023-05-21T03:49:52.690Z,17
2023-05-21T03:52:23.241Z,20
2023-05-21T03:54:53.784Z,20
2023-05-21T03:57:24.581Z,20
2023-05-21T03:59:55.440Z,20
2023-05-21T04:02:25.961Z,20
2023-05-21T04:04:56.804Z,20
2023-05-21T04:07:27.305Z,18
2023-05-21T04:09:57.896Z,20
2023-05-21T04:12:28.963Z,20
2023-05-21T04:15:01.229Z,20
2023-05-21T04:17:31.553Z,20
2023-05-21T04:20:02.608Z,20
2023-05-21T04:22:33.760Z,18
2023-05-21T04:25:04.981Z,20
2023-05-21T04:27:34.218Z,20
2023-05-21T04:30:05.446Z,20
2023-05-21T04:32:36.700Z,20
2023-05-21T04:35:07.363Z,20
2023-05-21T04:37:39.392Z,20
2023-05-21T04:40:10.263Z,20
2023-05-21T04:42:40.864Z,20
2023-05-21T04:45:11.317Z,20
2023-05-21T04:47:42.188Z,20
2023-05-21T04:50:12.712Z,20
2023-05-21T04:52:43.074Z,20
2023-05-21T04:55:13.767Z,20
2023-05-21T04:57:44.236Z,20
2023-05-21T05:00:14.850Z,20
2023-05-21T05:02:45.161Z,21
2023-05-21T05:05:16.147Z,22
2023-05-21T05:07:47.358Z,20
2023-05-21T05:10:18.213Z,20
2023-05-21T05:12:48.736Z,20
2023-05-21T05:15:19.387Z,20
2023-05-21T05:17:50.706Z,20
2023-05-21T05:20:21.772Z,19
2023-05-21T05:22:52.777Z,20
2023-05-21T05:25:23.730Z,20
2023-05-21T05:27:54.494Z,20
2023-05-21T05:30:25.397Z,20
2023-05-21T05:32:55.991Z,24
2023-05-21T05:35:26.614Z,20
2023-05-21T05:37:57.486Z,20
2023-05-21T05:40:28.457Z,20
2023-05-21T05:42:59.327Z,20
2023-05-21T05:45:28.228Z,24
2023-05-21T05:47:59.272Z,20
2023-05-21T05:50:29.725Z,20
2023-05-21T05:53:00.930Z,23
2023-05-21T05:55:32.065Z,22
2023-05-21T05:58:02.388Z,24
2023-05-21T06:00:33.030Z,24
2023-05-21T06:03:04.075Z,21
2023-05-21T06:05:35.851Z,20
2023-05-21T06:08:06.663Z,23
2023-05-21T06:10:37.321Z,20
2023-05-21T06:13:06.476Z,20
2023-05-21T06:15:38.398Z,20
2023-05-21T06:18:11.310Z,24
2023-05-21T06:20:45.903Z,20
2023-05-21T06:23:16.563Z,20
2023-05-21T06:25:46.592Z,17
2023-05-21T06:28:17.850Z,16
2023-05-21T06:30:49.387Z,16
2023-05-21T06:33:23.076Z,18
2023-05-21T06:35:55.406Z,20
2023-05-21T06:38:27.326Z,20
2023-05-21T06:41:02.214Z,16
2023-05-21T06:43:39.473Z,16
2023-05-21T06:46:10.553Z,19
2023-05-21T06:48:41.289Z,19
2023-05-21T06:51:11.847Z,16
2023-05-21T06:53:42.746Z,16
2023-05-21T06:56:13.399Z,20
2023-05-21T06:58:44.301Z,16
2023-05-21T07:01:15.071Z,16
2023-05-21T07:03:46.605Z,20
2023-05-21T07:06:17.208Z,16
2023-05-21T07:08:51.333Z,20
2023-05-21T07:11:21.629Z,20
2023-05-21T07:13:52.288Z,20
2023-05-21T07:16:23.260Z,19
2023-05-21T07:18:53.774Z,16
2023-05-21T07:21:24.565Z,16
2023-05-21T07:23:55.843Z,16
2023-05-21T07:26:26.406Z,20
2023-05-21T07:28:56.900Z,17
2023-05-21T07:31:28.096Z,16
2023-05-21T07:33:58.908Z,20
2023-05-21T07:36:29.050Z,20
2023-05-21T07:38:59.745Z,19
2023-05-21T07:41:30.274Z,29
2023-05-21T07:44:00.794Z,28
2023-05-21T07:46:31.988Z,35
2023-05-21T07:49:02.640Z,20
2023-05-21T07:51:33.536Z,20
2023-05-21T07:54:04.054Z,20
2023-05-21T07:56:34.925Z,16
2023-05-21T07:59:09.841Z,16
2023-05-21T08:01:40.073Z,19
2023-05-21T08:04:11.333Z,17
2023-05-21T08:06:41.937Z,16
2023-05-21T08:09:11.093Z,16
2023-05-21T08:11:45.478Z,24
2023-05-21T08:14:33.493Z,16
2023-05-21T08:17:05.177Z,24
2023-05-21T08:19:35.739Z,20
2023-05-21T08:22:06.185Z,19
2023-05-21T08:24:39.204Z,16
2023-05-21T08:27:09.959Z,16
2023-05-21T08:29:44.625Z,16
2023-05-21T08:32:15.536Z,16
2023-05-21T08:34:47.566Z,20
2023-05-21T08:37:18.056Z,16
2023-05-21T08:39:49.022Z,20
2023-05-21T08:42:29.314Z,16
2023-05-21T08:44:51.022Z,16
2023-05-21T08:47:21.220Z,16
2023-05-21T08:49:51.963Z,16
2023-05-21T08:54:52.659Z,23
2023-05-21T08:57:22.623Z,20
2023-05-21T08:59:53.142Z,16
2023-05-21T09:02:23.446Z,20
2023-05-21T09:04:54.654Z,16
2023-05-21T09:07:25.357Z,20
2023-05-21T09:09:58.905Z,20
2023-05-21T09:12:29.398Z,19
2023-05-21T09:15:00.386Z,20
2023-05-21T09:17:31.106Z,16
2023-05-21T09:20:01.842Z,16
2023-05-21T09:22:32.413Z,16
2023-05-21T09:25:03.139Z,16
2023-05-21T09:27:36.993Z,16
2023-05-21T09:30:08.623Z,16
2023-05-21T09:32:39.286Z,16
2023-05-21T09:35:11.326Z,16
2023-05-21T09:37:41.891Z,16
2023-05-21T09:40:12.611Z,16
2023-05-21T09:42:43.530Z,16
2023-05-21T09:45:18.870Z,16
2023-05-21T09:47:51.112Z,14
2023-05-21T09:50:22.704Z,15
2023-05-21T09:53:04.572Z,19
2023-05-21T09:55:41.153Z,16
2023-05-21T09:58:13.332Z,16
2023-05-21T10:00:45.142Z,16
2023-05-21T10:03:15.541Z,16
2023-05-21T10:05:46.988Z,14
2023-05-21T10:08:18.896Z,12
2023-05-21T10:10:49.755Z,14
2023-05-21T10:13:20.755Z,16
2023-05-21T10:15:51.096Z,16
2023-05-21T10:18:21.684Z,16
2023-05-21T10:20:52.100Z,16
2023-05-21T10:23:22.492Z,15
2023-05-21T10:25:55.141Z,12
2023-05-21T10:28:25.824Z,16
2023-05-21T10:30:58.184Z,13
2023-05-21T10:33:29.002Z,20
2023-05-21T10:36:00.005Z,16
2023-05-21T10:38:31.112Z,16
2023-05-21T10:41:01.615Z,20
2023-05-21T10:43:36.368Z,16
2023-05-21T10:46:07.857Z,16
2023-05-21T10:48:42.838Z,16
2023-05-21T10:51:13.590Z,16
2023-05-21T10:53:44.505Z,16
2023-05-21T10:56:15.156Z,16
2023-05-21T10:58:46.949Z,16
2023-05-21T11:01:19.665Z,16
2023-05-21T11:03:50.695Z,16
2023-05-21T11:06:22.425Z,16
2023-05-21T11:08:55.438Z,16
2023-05-21T11:11:26.537Z,16
2023-05-21T11:13:56.506Z,13
2023-05-21T11:16:30.942Z,16
2023-05-21T11:19:01.633Z,16
2023-05-21T11:21:32.194Z,20
2023-05-21T11:24:02.793Z,20
2023-05-21T11:26:37.194Z,20
2023-05-21T11:29:11.473Z,20
2023-05-21T11:31:42.224Z,16
2023-05-21T11:34:17.367Z,20
2023-05-21T11:36:47.048Z,16
2023-05-21T11:39:17.641Z,15
2023-05-21T11:41:48.218Z,16
2023-05-21T11:44:21.980Z,14
2023-05-21T11:46:52.720Z,16
2023-05-21T11:49:20.826Z,16
2023-05-21T11:51:55.625Z,16
2023-05-21T11:54:30.200Z,16
2023-05-21T11:57:00.822Z,16
2023-05-21T11:59:37.558Z,16
2023-05-21T12:02:13.830Z,16
2023-05-21T12:04:44.207Z,16
2023-05-21T12:07:14.853Z,13
2023-05-21T12:09:45.490Z,15
2023-05-21T12:12:14.519Z,16
2023-05-21T12:14:45.339Z,12
2023-05-21T12:17:15.789Z,15
2023-05-21T12:19:45.256Z,12
2023-05-21T12:22:15.730Z,12
2023-05-21T12:24:47.383Z,12
2023-05-21T12:27:28.681Z,14
2023-05-21T12:30:04.311Z,12
2023-05-21T12:32:34.620Z,12
2023-05-21T12:35:05.280Z,13
2023-05-21T12:37:35.630Z,16
2023-05-21T12:40:06.459Z,14
2023-05-21T12:42:38.829Z,12
2023-05-21T12:45:08.050Z,12
2023-05-21T12:47:38.844Z,12
2023-05-21T12:50:09.712Z,16
2023-05-21T12:52:40.620Z,16
2023-05-21T12:55:11.196Z,16
2023-05-21T12:57:40.737Z,18
2023-05-21T13:00:11.832Z,16
2023-05-21T13:02:42.181Z,12
2023-05-21T13:05:12.489Z,12
2023-05-21T13:07:41.706Z,23
2023-05-21T13:10:12.064Z,12
2023-05-21T13:12:43.561Z,12
2023-05-21T13:15:09.976Z,16
2023-05-21T13:17:41.457Z,16
2023-05-21T13:20:10.923Z,13
2023-05-21T13:22:42.332Z,12
2023-05-21T13:25:13.827Z,20
2023-05-21T13:27:44.904Z,16
2023-05-21T13:30:19.565Z,16
2023-05-21T13:32:52.372Z,20
2023-05-21T13:35:31.730Z,17
2023-05-21T13:38:03.455Z,12
2023-05-21T13:40:46.278Z,12
2023-05-21T13:43:18.881Z,16
2023-05-21T13:45:49.787Z,18
2023-05-21T13:48:25.605Z,16
2023-05-21T13:50:57.086Z,16
2023-05-21T13:53:27.594Z,12
2023-05-21T13:55:57.331Z,12
2023-05-21T13:58:27.560Z,12
2023-05-21T14:00:58.545Z,14
2023-05-21T14:03:30.711Z,19
2023-05-21T14:06:01.534Z,12
2023-05-21T14:08:30.445Z,12
2023-05-21T14:11:02.708Z,12
2023-05-21T14:13:32.384Z,12
2023-05-21T14:16:03.211Z,12
2023-05-21T14:18:33.904Z,12
2023-05-21T14:21:04.511Z,12
2023-05-21T14:23:33.705Z,16
2023-05-21T14:26:04.678Z,12
2023-05-21T14:28:33.558Z,12
2023-05-21T14:31:04.674Z,12
2023-05-21T14:33:37.078Z,12
2023-05-21T14:36:07.377Z,12
2023-05-21T14:38:38.104Z,13
2023-05-21T14:41:07.340Z,12
2023-05-21T14:43:38.247Z,12
2023-05-21T14:46:08.685Z,12
2023-05-21T14:48:39.052Z,12
2023-05-21T14:51:09.795Z,12
2023-05-21T14:53:41.830Z,12
2023-05-21T14:56:12.268Z,20
2023-05-21T14:58:42.909Z,16
2023-05-21T15:01:18.916Z,12
2023-05-21T15:03:48.543Z,16
2023-05-21T15:06:19.477Z,12
2023-05-21T15:08:50.043Z,12
2023-05-21T15:11:20.520Z,12
2023-05-21T15:13:55.195Z,16
2023-05-21T15:16:32.907Z,20
2023-05-21T15:19:03.733Z,12
2023-05-21T15:21:35.768Z,12
2023-05-21T15:24:07.632Z,12
2023-05-21T15:26:38.167Z,12
2023-05-21T15:29:08.716Z,12
2023-05-21T15:31:39.870Z,12
2023-05-21T15:34:10.858Z,12
2023-05-21T15:36:40.600Z,16
2023-05-21T15:39:11.740Z,12
2023-05-21T15:41:42.327Z,12
2023-05-21T15:44:11.444Z,12
2023-05-21T15:46:41.901Z,8
2023-05-21T15:49:12.984Z,12
2023-05-21T15:51:44.194Z,11
2023-05-21T15:54:15.001Z,12
2023-05-21T15:56:47.515Z,8
2023-05-21T15:59:19.064Z,8
2023-05-21T16:01:49.370Z,12
2023-05-21T16:04:20.205Z,12
2023-05-21T16:06:51.630Z,12
2023-05-21T16:09:31.248Z,12
2023-05-21T16:12:02.194Z,12
2023-05-21T16:14:37.970Z,12
2023-05-21T16:17:08.217Z,16
2023-05-21T16:19:43.600Z,16
2023-05-21T16:22:13.833Z,16
2023-05-21T16:24:44.756Z,14
2023-05-21T16:27:13.696Z,16
2023-05-21T16:29:45.884Z,19
2023-05-21T16:32:17.527Z,20
2023-05-21T16:34:48.312Z,16
2023-05-21T16:37:18.704Z,16
2023-05-21T16:39:49.228Z,16
2023-05-21T16:42:18.473Z,12
2023-05-21T16:44:48.771Z,15
2023-05-21T16:47:18.450Z,16
2023-05-21T16:49:48.628Z,12
2023-05-21T16:52:19.601Z,14
2023-05-21T16:54:51.223Z,13
2023-05-21T16:57:21.972Z,12
2023-05-21T16:59:51.499Z,12
2023-05-21T17:02:22.215Z,16
2023-05-21T17:04:53.217Z,16
2023-05-21T17:07:24.713Z,16
2023-05-21T17:09:53.817Z,12
2023-05-21T17:12:24.314Z,12
2023-05-21T17:14:54.912Z,12
2023-05-21T17:17:28.239Z,16
2023-05-21T17:19:58.695Z,16
2023-05-21T17:22:30.125Z,16
2023-05-21T17:25:00.219Z,14
2023-05-21T17:27:29.140Z,16
2023-05-21T17:29:59.468Z,12
2023-05-21T17:32:29.955Z,12
2023-05-21T17:34:59.272Z,16
2023-05-21T17:37:29.902Z,12
2023-05-21T17:39:58.888Z,12
2023-05-21T17:42:28.850Z,14
2023-05-21T17:45:00.212Z,14
2023-05-21T17:47:31.063Z,16
2023-05-21T17:50:01.697Z,12
2023-05-21T17:52:33.734Z,15
2023-05-21T17:55:04.651Z,12
2023-05-21T17:57:35.073Z,13
2023-05-21T18:00:05.441Z,12
2023-05-21T18:02:36.157Z,12
2023-05-21T18:05:06.586Z,12
2023-05-21T18:07:38.136Z,12
2023-05-21T18:10:09.539Z,12
2023-05-21T18:12:38.733Z,12
2023-05-21T18:15:09.597Z,12
2023-05-21T18:17:41.137Z,12
2023-05-21T18:20:11.316Z,9
2023-05-21T18:22:40.227Z,12
2023-05-21T18:25:10.691Z,8
2023-05-21T18:27:41.211Z,12
2023-05-21T18:30:09.846Z,9
2023-05-21T18:32:40.423Z,12
2023-05-21T18:35:19.744Z,12
2023-05-21T18:37:50.415Z,12
2023-05-21T18:40:21.039Z,12
2023-05-21T18:42:51.524Z,24
2023-05-21T18:45:21.763Z,16
2023-05-21T18:47:51.955Z,17
2023-05-21T18:50:22.806Z,10
2023-05-21T18:52:53.347Z,12
2023-05-21T18:55:23.753Z,8
2023-05-21T18:57:54.325Z,12
2023-05-21T19:00:23.030Z,8
2023-05-21T19:02:51.912Z,8
2023-05-21T19:05:21.910Z,11
2023-05-21T19:07:53.486Z,8
2023-05-21T19:10:24.796Z,11
2023-05-21T19:12:53.791Z,8
2023-05-21T19:15:22.910Z,8
2023-05-21T19:17:53.388Z,12
2023-05-21T19:20:24.011Z,8
2023-05-21T19:22:53.323Z,12
2023-05-21T19:25:24.035Z,8
2023-05-21T19:27:52.907Z,8
2023-05-21T19:30:22.930Z,8
2023-05-21T19:32:53.759Z,8
2023-05-21T19:35:24.684Z,8
2023-05-21T19:37:55.236Z,8
2023-05-21T19:40:25.906Z,12
2023-05-21T19:42:56.068Z,12
2023-05-21T19:45:27.517Z,13
2023-05-21T19:47:56.601Z,12
2023-05-21T19:50:27.951Z,8
2023-05-21T19:52:58.335Z,12
2023-05-21T19:55:28.598Z,8
2023-05-21T19:57:59.204Z,9
2023-05-21T20:00:29.697Z,8
2023-05-21T20:03:00.106Z,10
2023-05-21T20:05:30.516Z,8
2023-05-21T20:08:00.441Z,8
2023-05-21T20:10:30.879Z,8
2023-05-21T20:12:59.920Z,9
2023-05-21T20:15:30.130Z,12
2023-05-21T20:18:01.014Z,12
2023-05-21T20:20:30.546Z,12
2023-05-21T20:23:01.499Z,8
2023-05-21T20:25:30.495Z,8
2023-05-21T20:28:00.626Z,8
2023-05-21T20:30:31.521Z,8
2023-05-21T20:33:02.211Z,8
2023-05-21T20:35:32.723Z,12
2023-05-21T20:38:03.428Z,9
2023-05-21T20:40:34.368Z,8
2023-05-21T20:43:05.067Z,8
2023-05-21T20:45:34.952Z,12
2023-05-21T20:48:06.752Z,11
2023-05-21T20:50:37.547Z,8
2023-05-21T20:53:07.859Z,8
2023-05-21T20:55:38.702Z,8
2023-05-21T20:58:07.656Z,8
2023-05-21T21:00:39.711Z,8
2023-05-21T21:03:10.247Z,8
2023-05-21T21:05:41.076Z,8
2023-05-21T21:08:13.907Z,8
2023-05-21T21:10:43.013Z,8
2023-05-21T21:13:14.287Z,5
2023-05-21T21:15:45.004Z,9
2023-05-21T21:18:15.627Z,8
2023-05-21T21:20:44.988Z,8
2023-05-21T21:23:15.540Z,8
2023-05-21T21:25:46.631Z,8
2023-05-21T21:28:15.875Z,8
2023-05-21T21:30:46.506Z,8
2023-05-21T21:33:16.306Z,8
2023-05-21T21:35:50.236Z,8
2023-05-21T21:38:20.528Z,12
2023-05-21T21:40:53.153Z,8
2023-05-21T21:43:22.189Z,8
2023-05-21T21:45:51.186Z,8
2023-05-21T21:48:24.369Z,8
2023-05-21T21:50:54.997Z,8
2023-05-21T21:53:25.698Z,11
2023-05-21T21:58:43.021Z,7
2023-05-21T22:01:25.924Z,8
2023-05-21T22:03:59.776Z,8
2023-05-21T22:06:37.735Z,8
2023-05-21T22:09:08.807Z,8
2023-05-21T22:11:45.235Z,8
2023-05-21T22:14:15.838Z,9
2023-05-21T22:16:46.511Z,8
2023-05-21T22:19:17.335Z,8
2023-05-21T22:21:47.922Z,8
2023-05-21T22:24:32.298Z,8
2023-05-21T22:26:59.034Z,8
2023-05-21T22:29:32.924Z,8
2023-05-21T22:32:03.459Z,8
2023-05-21T22:34:34.398Z,8
2023-05-21T22:37:05.788Z,8
2023-05-21T22:39:36.330Z,8
2023-05-21T22:42:06.693Z,8
2023-05-21T22:44:37.372Z,8
2023-05-21T22:47:08.028Z,8
2023-05-21T22:49:38.738Z,8
2023-05-21T22:52:10.425Z,8
2023-05-21T22:54:39.394Z,8
2023-05-21T22:57:16.567Z,8
2023-05-21T22:59:48.405Z,8
2023-05-21T23:02:19.325Z,8
2023-05-21T23:04:48.719Z,8
2023-05-21T23:07:19.399Z,8
2023-05-21T23:09:51.317Z,8
2023-05-21T23:12:23.203Z,8
2023-05-21T23:14:53.614Z,8
2023-05-21T23:17:24.266Z,8
2023-05-21T23:19:54.953Z,12
2023-05-21T23:22:35.790Z,8
2023-05-21T23:25:09.640Z,11
2023-05-21T23:27:41.094Z,8
2023-05-21T23:30:13.733Z,8
2023-05-21T23:32:44.168Z,8
2023-05-21T23:35:23.948Z,11
2023-05-21T23:37:58.809Z,8
2023-05-21T23:40:28.769Z,8
2023-05-21T23:42:59.499Z,8
2023-05-21T23:45:30.304Z,12
2023-05-21T23:48:00.912Z,8
2023-05-21T23:50:31.518Z,8
2023-05-21T23:53:02.236Z,9
2023-05-21T23:55:31.220Z,11
2023-05-21T23:58:01.669Z,8
